Flight Track Log - Related Links

Times and Time Zones

All times are in EDT time to prevent confusion due to time zone crossing. See the RPA3392 flight status page for this flight to view local times or setup timezone preferences in your user account.

Time Position Orientation Groundspeed Altitude Reporting Facility
EDT Latitude Longitude Course Direction KTS MPH feet Rate Location/Type
Wed 10:42:23 PM 38.8000 -77.0333 83° East 164 189 1,800  Level Potomac TRACON
Wed 10:44:17 PM 38.7325 -76.9756 146° Southeast 188 216 5,400 2,069 Climbing Washington Center
Wed 10:45:00 PM 39.0764 -76.4106 61° Northeast  Level FlightAware
Wed 10:45:17 PM 38.8058 -76.9342 24° Northeast 123 142 7,800  Level Washington Center
Wed 10:46:00 PM 39.1167 -76.2837 90° East  Level FlightAware
Wed 10:46:15 PM 38.8914 -76.9172 North 209 241 10,200  Level Washington Center
Wed 10:47:00 PM 39.1556 -76.1607 83° East  Level FlightAware
Wed 10:47:16 PM 38.9814 -76.8867 15° North 278 320 11,600  Level Washington Center
Wed 10:48:15 PM 39.0222 -76.7725 65° Northeast 297 342 13,600 2,100 Climbing Washington Center
Wed 10:49:16 PM 39.0525 -76.6475 73° East 318 366 15,800 1,967 Climbing Washington Center
Wed 10:50:17 PM 39.0828 -76.5114 74° East 354 407 17,600 1,636 Climbing Washington Center
Wed 10:51:17 PM 39.1150 -76.3756 73° East 381 438 19,100 1,664 Climbing Washington Center
Wed 10:52:16 PM 39.1492 -76.2314 73° East 406 467 20,900 1,576 Climbing Washington Center
Wed 10:53:15 PM 39.1708 -76.0817 79° East 418 481 22,200 1,059 Climbing Washington Center
Wed 10:54:15 PM 39.2233 -75.9425 64° Northeast 418 481 23,000 397 Climbing Washington Center
Wed 10:55:16 PM 39.3050 -75.8194 49° Northeast 430 495 23,000  Level Washington Center
Wed 10:56:16 PM 39.3864 -75.6964 49° Northeast 441 507 23,000  Level Washington Center
Wed 10:57:17 PM 39.4656 -75.5728 50° Northeast 441 507 23,000 250 Level Washington Center
Wed 10:58:16 PM 39.5489 -75.4569 47° Northeast 441 507 23,500 900 Climbing Washington Center
Wed 10:59:17 PM 39.6319 -75.3328 49° Northeast 441 507 24,800 841 Climbing Washington Center
Wed 11:00:03 PM 39.7017 -75.2336 48° Northeast 451 519 25,000 340 Climbing New Center
Wed 11:01:03 PM 39.7881 -75.1014 50° Northeast 463 533 25,400 694 Climbing New Center
Wed 11:02:04 PM 39.8719 -74.9742 49° Northeast 468 539 26,400 1,100 Climbing New Center
Wed 11:03:03 PM 39.9728 -74.8339 47° Northeast 473 544 27,600 1,100 Climbing New Center
Wed 11:04:04 PM 40.0475 -74.7189 50° Northeast 463 533 28,600 694 Climbing New Center
Wed 11:05:04 PM 40.1458 -74.5778 48° Northeast 471 542 29,000 200 Climbing New Center
Wed 11:06:04 PM 40.2439 -74.4500 45° Northeast 482 555 29,000  Level New Center
Wed 11:07:03 PM 40.3494 -74.3386 39° Northeast 482 555 29,000  Level New Center
Wed 11:08:04 PM 40.4528 -74.2267 39° Northeast 482 555 29,000  Level New Center
Wed 11:09:04 PM 40.5558 -74.1144 40° Northeast 482 555 29,000 -1,140 Level New Center
Wed 11:10:05 PM 40.6611 -74.0047 38° Northeast 482 555 26,700 -1,744 Descending New Center
Wed 11:11:56 PM 40.8458 -73.8008 40° Northeast 468 539 24,000 -982 Descending Boston Center
Wed 11:12:56 PM 40.9389 -73.6875 43° Northeast 455 524 23,900 -500 Descending Boston Center
Wed 11:13:56 PM 41.0481 -73.6014 31° Northeast 455 524 23,000 -450 Descending Boston Center
Wed 11:14:56 PM 41.1689 -73.6119 356° North 420 483 23,000 -550 Level Boston Center
Wed 11:15:56 PM 41.2897 -73.6253 355° North 420 483 21,900 -1,350 Descending Boston Center
Wed 11:16:56 PM 41.4061 -73.6411 354° North 420 483 20,300 -1,550 Descending Boston Center
Wed 11:17:56 PM 41.5186 -73.6544 355° North 415 478 18,800 -1,450 Descending Boston Center
Wed 11:18:56 PM 41.6267 -73.6675 355° North 402 463 17,400 -1,350 Descending Boston Center
Wed 11:19:56 PM 41.7372 -73.6808 355° North 396 456 16,100 -1,429 Descending Boston Center
Wed 11:20:41 PM 41.8203 -73.6936 353° North 389 448 14,900 -1,576 Descending Boston Center
Wed 11:21:35 PM 41.9078 -73.7008 356° North 387 445 13,500 -1,513 Descending Boston Center
Wed 11:22:36 PM 42.0139 -73.7142 355° North 356 410 12,000 -1,240 Descending Boston Center
Wed 11:23:36 PM 42.1139 -73.7247 356° North 355 409 11,000 -545 Descending Boston Center
Wed 11:24:37 PM 42.2117 -73.7322 357° North 352 405 10,900 -689 Descending Boston Center
Wed 11:25:38 PM 42.2994 -73.7144 North 300 345 9,600 -1,461 Descending Boston Center
Wed 11:26:32 PM 42.3747 -73.6992 North 290 334 8,100 -1,670 Descending Boston Center
Wed 11:27:33 PM 42.4519 -73.6867 North 284 327 6,400 -1,686 Descending Boston Center
Wed 11:28:33 PM 42.5292 -73.6797 North 277 319 4,700 -1,190 Descending Boston Center
Wed 11:29:34 PM 42.6019 -73.6869 356° North 266 306 4,000 -738 Descending Boston Center
Wed 11:30:35 PM 42.6769 -73.6883 359° North 267 307 3,200 -496 Descending Boston Center
Wed 11:31:35 PM 42.7561 -73.6928 358° North 267 307 3,000 -99 Descending Boston Center
Wed 11:32:36 PM 42.8208 -73.6942 359° North 222 255 3,000 -298 Level Boston Center
Wed 11:33:36 PM 42.8619 -73.7317 326° Northwest 181 208 2,400 -600 Descending Boston Center

Login

Don't have an account? Register now (free) for customized features, flight alerts, and more!